createdAt,value
2023-05-20T00:01:04.367Z,20.70
2023-05-20T00:03:31.184Z,19.90
2023-05-20T00:05:58.204Z,20.00
2023-05-20T00:08:25.487Z,19.30
2023-05-20T00:10:52.331Z,20.90
2023-05-20T00:13:19.251Z,20.50
2023-05-20T00:15:46.145Z,20.60
2023-05-20T00:18:12.923Z,20.90
2023-05-20T00:20:39.851Z,19.90
2023-05-20T00:23:06.944Z,21.20
2023-05-20T00:25:33.898Z,21.10
2023-05-20T00:28:01.147Z,21.10
2023-05-20T00:30:28.156Z,20.90
2023-05-20T00:32:54.955Z,20.90
2023-05-20T00:35:21.964Z,20.60
2023-05-20T00:37:48.787Z,21.00
2023-05-20T00:40:16.318Z,21.20
2023-05-20T00:42:43.202Z,21.10
2023-05-20T00:45:10.631Z,20.70
2023-05-20T00:47:38.263Z,19.90
2023-05-20T00:50:05.868Z,20.00
2023-05-20T00:52:32.717Z,20.20
2023-05-20T00:54:59.829Z,20.10
2023-05-20T00:57:27.004Z,19.50
2023-05-20T00:59:53.882Z,19.50
2023-05-20T01:02:21.466Z,19.80
2023-05-20T01:04:48.607Z,20.60
2023-05-20T01:07:16.541Z,19.80
2023-05-20T01:09:43.409Z,19.60
2023-05-20T01:12:15.371Z,19.70
2023-05-20T01:14:59.208Z,18.40
2023-05-20T01:17:27.431Z,19.30
2023-05-20T01:19:54.922Z,19.30
2023-05-20T01:22:26.826Z,19.30
2023-05-20T01:24:53.660Z,19.70
2023-05-20T01:27:22.712Z,19.40
2023-05-20T01:29:53.542Z,18.60
2023-05-20T01:32:28.601Z,18.80
2023-05-20T01:34:55.764Z,18.40
2023-05-20T01:37:22.591Z,18.40
2023-05-20T01:39:49.981Z,19.10
2023-05-20T01:42:17.281Z,19.30
2023-05-20T01:44:44.181Z,18.90
2023-05-20T01:47:11.137Z,17.80
2023-05-20T01:49:37.919Z,18.90
2023-05-20T01:52:05.828Z,18.10
2023-05-20T01:54:34.072Z,18.10
2023-05-20T01:57:01.757Z,18.90
2023-05-20T01:59:28.901Z,17.80
2023-05-20T02:01:56.319Z,17.20
2023-05-20T02:04:23.218Z,17.60
2023-05-20T02:06:50.542Z,17.30
2023-05-20T02:09:18.693Z,17.80
2023-05-20T02:11:45.507Z,18.20
2023-05-20T02:14:12.624Z,16.80
2023-05-20T02:16:39.665Z,17.00
2023-05-20T02:19:12.980Z,17.70
2023-05-20T02:21:41.363Z,17.50
2023-05-20T02:24:10.149Z,17.70
2023-05-20T02:26:37.240Z,17.80
2023-05-20T02:29:04.011Z,18.50
2023-05-20T02:31:31.040Z,17.70
2023-05-20T02:33:57.925Z,17.80
2023-05-20T02:36:24.839Z,17.80
2023-05-20T02:38:51.703Z,17.80
2023-05-20T02:41:18.598Z,17.40
2023-05-20T02:43:47.090Z,17.90
2023-05-20T02:46:13.994Z,18.20
2023-05-20T02:48:41.023Z,18.10
2023-05-20T02:51:07.836Z,18.50
2023-05-20T02:53:34.628Z,18.90
2023-05-20T02:56:01.722Z,18.20
2023-05-20T02:58:29.611Z,19.00
2023-05-20T03:00:57.826Z,18.90
2023-05-20T03:03:27.303Z,19.20
2023-05-20T03:05:54.304Z,19.60
2023-05-20T03:08:22.411Z,20.20
2023-05-20T03:10:49.289Z,19.40
2023-05-20T03:13:16.141Z,20.50
2023-05-20T03:15:45.581Z,19.60
2023-05-20T03:18:13.777Z,20.00
2023-05-20T03:20:41.715Z,21.00
2023-05-20T03:23:09.379Z,21.20
2023-05-20T03:25:37.519Z,22.80
2023-05-20T03:28:06.710Z,22.40
2023-05-20T03:30:34.915Z,22.60
2023-05-20T03:33:03.252Z,23.20
2023-05-20T03:35:30.583Z,22.70
2023-05-20T03:37:58.749Z,22.60
2023-05-20T03:40:26.074Z,23.10
2023-05-20T03:42:53.485Z,22.30
2023-05-20T03:45:21.042Z,22.60
2023-05-20T03:48:08.311Z,22.30
2023-05-20T03:50:36.009Z,23.60
2023-05-20T03:53:03.115Z,24.80
2023-05-20T03:55:36.019Z,24.00
2023-05-20T03:58:03.650Z,25.20
2023-05-20T04:00:32.044Z,26.20
2023-05-20T04:02:58.913Z,25.60
2023-05-20T04:05:26.832Z,26.30
2023-05-20T04:07:54.802Z,25.80
2023-05-20T04:10:22.107Z,27.50
2023-05-20T04:12:50.693Z,29.50
2023-05-20T04:15:18.183Z,28.70
2023-05-20T04:17:51.109Z,29.20
2023-05-20T04:20:18.774Z,27.50
2023-05-20T04:22:46.204Z,29.30
2023-05-20T04:25:14.065Z,29.50
2023-05-20T04:27:41.292Z,27.90
2023-05-20T04:30:08.519Z,28.00
2023-05-20T04:32:38.874Z,29.30
2023-05-20T04:35:11.742Z,30.40
2023-05-20T04:37:39.355Z,28.10
2023-05-20T04:40:08.235Z,28.70
2023-05-20T04:42:35.478Z,29.50
2023-05-20T04:45:04.511Z,29.90
2023-05-20T04:47:32.395Z,29.40
2023-05-20T04:49:59.239Z,29.80
2023-05-20T04:52:26.549Z,29.60
2023-05-20T04:54:54.159Z,29.10
2023-05-20T04:57:21.143Z,29.40
2023-05-20T04:59:48.232Z,29.60
2023-05-20T05:02:15.468Z,29.90
2023-05-20T05:04:42.393Z,30.00
2023-05-20T05:07:09.604Z,29.90
2023-05-20T05:09:36.540Z,30.10
2023-05-20T05:12:03.531Z,28.20
2023-05-20T05:14:30.395Z,28.10
2023-05-20T05:16:57.605Z,28.40
2023-05-20T05:19:24.528Z,27.80
2023-05-20T05:21:52.342Z,28.40
2023-05-20T05:24:19.438Z,27.20
2023-05-20T05:26:46.561Z,28.30
2023-05-20T05:29:14.743Z,27.90
2023-05-20T05:31:41.570Z,27.00
2023-05-20T05:34:08.728Z,27.30
2023-05-20T05:36:35.688Z,26.70
2023-05-20T05:39:02.577Z,28.90
2023-05-20T05:41:29.883Z,27.60
2023-05-20T05:43:58.675Z,27.20
2023-05-20T05:46:26.006Z,27.60
2023-05-20T05:48:52.784Z,28.20
2023-05-20T05:51:19.617Z,28.30
2023-05-20T05:53:47.340Z,27.90
2023-05-20T05:56:14.553Z,29.40
2023-05-20T05:58:42.176Z,29.20
2023-05-20T06:01:09.065Z,28.50
2023-05-20T06:03:35.936Z,28.30
2023-05-20T06:06:03.186Z,28.90
2023-05-20T06:08:30.810Z,30.70
2023-05-20T06:10:57.622Z,28.00
2023-05-20T06:13:24.575Z,27.00
2023-05-20T06:15:51.431Z,26.40
2023-05-20T06:18:18.215Z,26.40
2023-05-20T06:20:45.237Z,25.70
2023-05-20T06:23:12.240Z,26.00
2023-05-20T06:25:59.714Z,26.40
2023-05-20T06:28:27.444Z,25.20
2023-05-20T06:30:55.036Z,24.30
2023-05-20T06:33:26.229Z,24.10
2023-05-20T06:35:53.918Z,23.10
2023-05-20T06:38:21.101Z,22.40
2023-05-20T06:40:51.205Z,22.40
2023-05-20T06:43:18.669Z,20.80
2023-05-20T06:46:04.077Z,20.20
2023-05-20T06:48:36.216Z,19.40
2023-05-20T06:51:04.263Z,17.60
2023-05-20T06:53:31.224Z,17.70
2023-05-20T06:55:58.245Z,17.60
2023-05-20T06:58:26.199Z,17.50
2023-05-20T07:00:54.967Z,16.90
2023-05-20T07:03:23.130Z,16.50
2023-05-20T07:05:51.450Z,15.40
2023-05-20T07:08:19.096Z,14.90
2023-05-20T07:10:46.800Z,14.50
2023-05-20T07:13:17.209Z,12.30
2023-05-20T07:15:46.944Z,12.50
2023-05-20T07:18:14.379Z,11.00
2023-05-20T07:20:41.940Z,11.10
2023-05-20T07:23:15.861Z,10.00
2023-05-20T07:25:47.889Z,10.00
2023-05-20T07:28:16.196Z,8.80
2023-05-20T07:30:49.963Z,8.30
2023-05-20T07:33:28.101Z,9.20
2023-05-20T07:35:54.976Z,8.70
2023-05-20T07:38:22.699Z,8.90
2023-05-20T07:40:56.150Z,9.00
2023-05-20T07:43:23.155Z,8.40
2023-05-20T07:45:51.018Z,8.80
2023-05-20T07:48:18.150Z,8.00
2023-05-20T07:50:45.196Z,7.80
2023-05-20T07:53:12.432Z,6.80
2023-05-20T07:55:39.621Z,7.30
2023-05-20T07:58:06.937Z,6.70
2023-05-20T08:00:35.994Z,6.20
2023-05-20T08:03:04.561Z,6.60
2023-05-20T08:05:41.617Z,6.60
2023-05-20T08:08:10.528Z,7.00
2023-05-20T08:10:45.885Z,6.40
2023-05-20T08:13:12.763Z,6.30
2023-05-20T08:15:39.802Z,6.10
2023-05-20T08:18:07.224Z,7.20
2023-05-20T08:20:34.268Z,7.10
2023-05-20T08:23:01.189Z,5.60
2023-05-20T08:25:28.282Z,6.00
2023-05-20T08:27:55.844Z,6.50
2023-05-20T08:30:22.893Z,6.00
2023-05-20T08:32:49.754Z,6.30
2023-05-20T08:35:16.662Z,5.40
2023-05-20T08:37:43.478Z,5.50
2023-05-20T08:40:11.895Z,6.10
2023-05-20T08:42:42.584Z,6.00
2023-05-20T08:45:13.737Z,7.00
2023-05-20T08:47:43.071Z,6.30
2023-05-20T08:50:11.626Z,6.30
2023-05-20T08:52:45.438Z,6.20
2023-05-20T08:55:17.991Z,6.20
2023-05-20T08:57:45.989Z,6.60
2023-05-20T09:00:15.663Z,5.50
2023-05-20T09:05:11.175Z,5.80
2023-05-20T09:07:38.183Z,5.30
2023-05-20T09:10:05.807Z,5.90
2023-05-20T09:12:32.664Z,5.80
2023-05-20T09:14:59.460Z,6.70
2023-05-20T09:17:26.362Z,6.60
2023-05-20T09:19:53.904Z,6.40
2023-05-20T09:22:24.820Z,6.50
2023-05-20T09:24:52.498Z,7.00
2023-05-20T09:27:20.467Z,7.40
2023-05-20T09:29:51.211Z,7.30
2023-05-20T09:32:19.827Z,7.40
2023-05-20T09:34:47.241Z,7.20
2023-05-20T09:37:15.199Z,8.30
2023-05-20T09:39:49.730Z,7.30
2023-05-20T09:42:21.256Z,7.40
2023-05-20T09:44:48.612Z,6.30
2023-05-20T09:47:15.475Z,7.20
2023-05-20T09:49:42.382Z,7.20
2023-05-20T09:52:09.321Z,6.40
2023-05-20T09:54:36.831Z,7.00
2023-05-20T09:57:03.864Z,7.00
2023-05-20T09:59:31.555Z,7.10
2023-05-20T10:01:58.562Z,7.00
2023-05-20T10:04:25.712Z,7.00
2023-05-20T10:07:33.901Z,7.10
2023-05-20T10:10:30.076Z,7.20
2023-05-20T10:13:21.389Z,7.00
2023-05-20T10:16:23.797Z,7.10
2023-05-20T10:19:09.625Z,7.00
2023-05-20T10:21:36.482Z,7.40
2023-05-20T10:24:10.179Z,7.50
2023-05-20T10:26:41.772Z,7.60
2023-05-20T10:29:18.259Z,7.40
2023-05-20T10:31:52.018Z,7.50
2023-05-20T10:34:21.030Z,7.90
2023-05-20T10:36:53.913Z,7.80
2023-05-20T10:39:27.797Z,7.60
2023-05-20T10:42:08.546Z,7.80
2023-05-20T10:44:47.511Z,7.50
2023-05-20T10:49:47.642Z,6.80
2023-05-20T10:52:14.664Z,6.50
2023-05-20T10:54:54.948Z,6.90
2023-05-20T10:57:22.525Z,6.40
2023-05-20T10:59:49.585Z,6.60
2023-05-20T11:04:50.765Z,6.70
2023-05-20T11:07:31.005Z,6.00
2023-05-20T11:09:58.561Z,6.30
2023-05-20T11:12:26.224Z,6.00
2023-05-20T11:14:53.147Z,6.00
2023-05-20T11:17:20.173Z,5.30
2023-05-20T11:19:47.614Z,5.20
2023-05-20T11:22:14.554Z,5.80
2023-05-20T11:24:41.825Z,5.50
2023-05-20T11:27:08.579Z,5.50
2023-05-20T11:29:35.532Z,5.80
2023-05-20T11:32:02.474Z,5.60
2023-05-20T11:34:37.466Z,5.70
2023-05-20T11:37:11.475Z,5.20
2023-05-20T11:39:38.459Z,5.30
2023-05-20T11:42:06.592Z,5.80
2023-05-20T11:44:33.504Z,5.50
2023-05-20T11:47:01.668Z,5.30
2023-05-20T11:49:28.867Z,5.20
2023-05-20T11:51:56.740Z,5.40
2023-05-20T11:54:24.500Z,5.70
2023-05-20T11:56:51.701Z,5.40
2023-05-20T11:59:18.644Z,5.10
2023-05-20T12:01:45.767Z,5.20
2023-05-20T12:04:17.561Z,5.60
2023-05-20T12:06:44.545Z,4.90
2023-05-20T12:09:11.569Z,4.90
2023-05-20T12:11:42.009Z,5.30
2023-05-20T12:14:09.231Z,5.10
2023-05-20T12:16:36.902Z,4.70
2023-05-20T12:19:04.183Z,4.60
2023-05-20T12:21:31.590Z,4.50
2023-05-20T12:24:01.854Z,4.30
2023-05-20T12:26:29.147Z,4.10
2023-05-20T12:28:56.535Z,4.20
2023-05-20T12:31:23.857Z,4.10
2023-05-20T12:33:50.904Z,3.80
2023-05-20T12:36:19.915Z,3.70
2023-05-20T12:38:47.253Z,4.10
2023-05-20T12:41:14.467Z,3.50
2023-05-20T12:43:41.661Z,3.90
2023-05-20T12:46:08.758Z,4.10
2023-05-20T12:48:36.916Z,3.50
2023-05-20T12:51:04.083Z,3.80
2023-05-20T12:53:31.147Z,3.60
2023-05-20T12:55:58.225Z,3.60
2023-05-20T12:58:25.137Z,3.20
2023-05-20T13:00:51.987Z,3.60
2023-05-20T13:03:18.995Z,3.40
2023-05-20T13:05:46.320Z,3.40
2023-05-20T13:08:14.842Z,3.30
2023-05-20T13:10:42.199Z,3.20
2023-05-20T13:13:09.058Z,3.40
2023-05-20T13:15:36.798Z,3.00
2023-05-20T13:18:06.129Z,3.40
2023-05-20T13:23:00.137Z,3.60
2023-05-20T13:25:28.010Z,3.70
2023-05-20T13:27:54.815Z,3.70
2023-05-20T13:30:21.776Z,3.70
2023-05-20T13:32:48.582Z,3.60
2023-05-20T13:35:16.996Z,2.90
2023-05-20T13:37:44.014Z,2.80
2023-05-20T13:40:11.837Z,2.80
2023-05-20T13:42:38.627Z,2.60
2023-05-20T13:45:06.463Z,2.50
2023-05-20T13:47:33.485Z,2.70
2023-05-20T13:50:02.794Z,2.70
2023-05-20T13:52:30.399Z,2.90
2023-05-20T13:54:57.327Z,2.50
2023-05-20T13:57:24.118Z,2.50
2023-05-20T13:59:51.071Z,2.80
2023-05-20T14:02:18.113Z,2.50
2023-05-20T14:04:47.035Z,2.30
2023-05-20T14:07:14.060Z,2.30
2023-05-20T14:09:41.073Z,2.20
2023-05-20T14:12:08.277Z,2.40
2023-05-20T14:14:35.419Z,2.60
2023-05-20T14:17:02.211Z,2.40
2023-05-20T14:19:30.164Z,2.70
2023-05-20T14:21:59.017Z,2.40
2023-05-20T14:24:25.850Z,2.60
2023-05-20T14:26:53.756Z,2.30
2023-05-20T14:29:21.052Z,2.80
2023-05-20T14:31:48.094Z,2.40
2023-05-20T14:34:14.981Z,3.10
2023-05-20T14:36:42.166Z,2.60
2023-05-20T14:39:09.792Z,2.80
2023-05-20T14:41:36.589Z,2.70
2023-05-20T14:44:03.564Z,2.50
2023-05-20T14:46:30.828Z,2.40
2023-05-20T14:48:57.809Z,2.40
2023-05-20T14:51:24.632Z,2.70
2023-05-20T14:53:51.462Z,2.50
2023-05-20T14:56:18.316Z,2.60
2023-05-20T14:58:45.112Z,2.60
2023-05-20T15:01:12.156Z,2.30
2023-05-20T15:03:39.268Z,2.10
2023-05-20T15:06:06.327Z,1.90
2023-05-20T15:08:33.190Z,2.00
2023-05-20T15:11:00.025Z,2.10
2023-05-20T15:13:26.978Z,2.30
2023-05-20T15:15:54.083Z,2.20
2023-05-20T15:18:20.925Z,2.40
2023-05-20T15:20:47.728Z,2.00
2023-05-20T15:23:14.584Z,2.10
2023-05-20T15:25:41.307Z,1.70
2023-05-20T15:28:08.760Z,1.80
2023-05-20T15:30:35.974Z,1.90
2023-05-20T15:33:03.267Z,2.00
2023-05-20T15:35:30.235Z,2.30
2023-05-20T15:37:57.386Z,2.00
2023-05-20T15:40:24.375Z,2.60
2023-05-20T15:42:51.647Z,2.60
2023-05-20T15:45:18.637Z,2.00
2023-05-20T15:47:45.550Z,2.30
2023-05-20T15:50:12.630Z,2.20
2023-05-20T15:52:40.049Z,2.20
2023-05-20T15:55:07.978Z,1.90
2023-05-20T15:57:34.779Z,1.90
2023-05-20T16:00:01.690Z,1.90
2023-05-20T16:02:28.787Z,1.80
2023-05-20T16:04:55.947Z,2.20
2023-05-20T16:07:22.732Z,2.00
2023-05-20T16:09:49.557Z,1.80
2023-05-20T16:12:17.121Z,2.20
2023-05-20T16:14:44.891Z,2.10
2023-05-20T16:17:12.274Z,1.90
2023-05-20T16:19:39.314Z,2.10
2023-05-20T16:22:06.196Z,1.90
2023-05-20T16:24:32.952Z,1.90
2023-05-20T16:26:59.728Z,1.80
2023-05-20T16:29:26.493Z,2.00
2023-05-20T16:31:53.439Z,2.00
2023-05-20T16:34:20.461Z,2.20
2023-05-20T16:36:47.303Z,2.00
2023-05-20T16:39:14.795Z,2.00
2023-05-20T16:41:42.055Z,2.20
2023-05-20T16:44:08.996Z,2.00
2023-05-20T16:46:36.060Z,1.90
2023-05-20T16:49:02.873Z,1.90
2023-05-20T16:51:29.734Z,2.10
2023-05-20T16:53:56.608Z,2.10
2023-05-20T16:56:23.420Z,2.20
2023-05-20T16:58:52.783Z,2.40
2023-05-20T17:01:20.376Z,2.10
2023-05-20T17:03:47.392Z,2.30
2023-05-20T17:06:14.224Z,2.20
2023-05-20T17:08:41.308Z,2.60
2023-05-20T17:11:08.460Z,2.60
2023-05-20T17:13:35.824Z,2.60
2023-05-20T17:16:02.753Z,2.50
2023-05-20T17:18:29.623Z,2.20
2023-05-20T17:20:56.396Z,1.90
2023-05-20T17:23:23.227Z,2.50
2023-05-20T17:25:50.197Z,2.80
2023-05-20T17:28:17.925Z,2.60
2023-05-20T17:30:45.086Z,2.50
2023-05-20T17:33:12.060Z,2.70
2023-05-20T17:35:39.470Z,2.30
2023-05-20T17:38:06.375Z,2.50
2023-05-20T17:40:33.479Z,2.80
2023-05-20T17:43:01.358Z,2.80
2023-05-20T17:45:28.268Z,2.40
2023-05-20T17:47:55.165Z,2.60
2023-05-20T17:50:22.006Z,2.50
2023-05-20T17:52:48.872Z,3.70
2023-05-20T17:55:18.371Z,3.20
2023-05-20T17:57:45.241Z,3.10
2023-05-20T18:00:13.201Z,3.20
2023-05-20T18:05:16.963Z,3.30
2023-05-20T18:07:43.887Z,3.20
2023-05-20T18:10:10.877Z,2.90
2023-05-20T18:12:38.235Z,3.10
2023-05-20T18:15:06.399Z,3.20
2023-05-20T18:17:33.594Z,2.90
2023-05-20T18:20:00.488Z,3.20
2023-05-20T18:22:27.423Z,2.40
2023-05-20T18:24:54.183Z,2.80
2023-05-20T18:27:21.303Z,2.80
2023-05-20T18:29:49.593Z,2.70
2023-05-20T18:32:16.447Z,2.40
2023-05-20T18:34:43.480Z,2.50
2023-05-20T18:37:10.296Z,2.80
2023-05-20T18:39:37.274Z,2.70
2023-05-20T18:42:04.636Z,2.50
2023-05-20T18:44:31.436Z,2.90
2023-05-20T18:46:58.436Z,2.40
2023-05-20T18:49:25.233Z,2.40
2023-05-20T18:51:52.236Z,2.90
2023-05-20T18:54:19.033Z,2.30
2023-05-20T18:56:48.622Z,2.60
2023-05-20T18:59:15.685Z,3.30
2023-05-20T19:01:42.558Z,2.90
2023-05-20T19:04:09.444Z,3.10
2023-05-20T19:06:37.669Z,2.90
2023-05-20T19:09:04.800Z,2.90
2023-05-20T19:11:31.690Z,3.00
2023-05-20T19:13:58.772Z,2.80
2023-05-20T19:16:26.245Z,2.60
2023-05-20T19:18:53.203Z,2.60
2023-05-20T19:21:20.010Z,2.50
2023-05-20T19:23:47.136Z,2.60
2023-05-20T19:26:15.088Z,2.50
2023-05-20T19:28:42.297Z,2.80
2023-05-20T19:31:09.154Z,2.70
2023-05-20T19:33:36.141Z,2.70
2023-05-20T19:36:03.012Z,2.80
2023-05-20T19:38:29.834Z,2.80
2023-05-20T19:40:56.635Z,2.50
2023-05-20T19:43:24.297Z,2.80
2023-05-20T19:45:51.484Z,2.50
2023-05-20T19:48:20.025Z,2.60
2023-05-20T19:50:49.262Z,2.60
2023-05-20T19:53:16.075Z,2.50
2023-05-20T19:55:43.259Z,2.80
2023-05-20T19:58:10.275Z,2.80
2023-05-20T20:00:37.381Z,2.70
2023-05-20T20:03:06.519Z,3.10
2023-05-20T20:05:34.251Z,2.90
2023-05-20T20:08:01.486Z,2.80
2023-05-20T20:10:30.758Z,3.20
2023-05-20T20:12:57.548Z,3.10
2023-05-20T20:15:25.448Z,3.10
2023-05-20T20:17:52.575Z,2.80
2023-05-20T20:20:19.736Z,3.00
2023-05-20T20:22:46.541Z,3.50
2023-05-20T20:25:16.546Z,2.90
2023-05-20T20:27:44.185Z,2.60
2023-05-20T20:30:13.631Z,2.80
2023-05-20T20:32:41.178Z,3.00
2023-05-20T20:35:08.553Z,2.70
2023-05-20T20:37:36.254Z,2.50
2023-05-20T20:40:04.196Z,2.60
2023-05-20T20:42:31.508Z,2.60
2023-05-20T20:44:58.489Z,2.90
2023-05-20T20:47:29.334Z,2.80
2023-05-20T20:49:56.606Z,2.70
2023-05-20T20:52:23.521Z,2.80
2023-05-20T20:54:50.463Z,2.70
2023-05-20T20:57:17.591Z,2.80
2023-05-20T20:59:48.110Z,2.80
2023-05-20T21:02:15.107Z,3.20
2023-05-20T21:04:42.996Z,2.80
2023-05-20T21:07:09.999Z,2.70
2023-05-20T21:09:36.787Z,2.80
2023-05-20T21:12:06.963Z,3.00
2023-05-20T21:14:33.882Z,2.90
2023-05-20T21:17:00.864Z,2.80
2023-05-20T21:19:28.210Z,3.00
2023-05-20T21:21:55.485Z,2.70
2023-05-20T21:24:22.437Z,2.90
2023-05-20T21:26:49.207Z,2.60
2023-05-20T21:29:16.362Z,2.90
2023-05-20T21:31:43.277Z,2.60
2023-05-20T21:34:10.118Z,2.40
2023-05-20T21:36:37.103Z,2.60
2023-05-20T21:39:03.982Z,2.80
2023-05-20T21:41:30.862Z,3.10
2023-05-20T21:43:57.619Z,2.50
2023-05-20T21:46:24.436Z,2.80
2023-05-20T21:48:51.288Z,2.80
2023-05-20T21:51:18.107Z,2.90
2023-05-20T21:53:44.922Z,2.80
2023-05-20T21:56:11.831Z,2.70
2023-05-20T21:58:41.402Z,2.30
2023-05-20T22:01:10.057Z,2.60
2023-05-20T22:03:38.261Z,2.40
2023-05-20T22:06:05.864Z,2.40
2023-05-20T22:08:35.565Z,2.60
2023-05-20T22:11:05.455Z,2.70
2023-05-20T22:13:33.345Z,2.50
2023-05-20T22:16:05.166Z,2.50
2023-05-20T22:18:32.134Z,2.60
2023-05-20T22:21:01.771Z,2.90
2023-05-20T22:23:28.912Z,2.60
2023-05-20T22:25:56.260Z,2.50
2023-05-20T22:28:23.890Z,2.60
2023-05-20T22:30:51.659Z,2.50
2023-05-20T22:33:18.712Z,2.80
2023-05-20T22:35:45.660Z,2.80
2023-05-20T22:38:12.461Z,2.90
2023-05-20T22:40:39.468Z,2.80
2023-05-20T22:43:06.382Z,2.80
2023-05-20T22:45:33.340Z,2.90
2023-05-20T22:48:02.066Z,2.90
2023-05-20T22:50:29.169Z,2.70
2023-05-20T22:52:55.996Z,2.40
2023-05-20T22:55:24.046Z,2.60
2023-05-20T22:57:50.873Z,2.70
2023-05-20T23:00:18.188Z,2.60
2023-05-20T23:02:50.084Z,2.90
2023-05-20T23:05:17.462Z,2.70
2023-05-20T23:07:45.119Z,2.60
2023-05-20T23:10:11.985Z,2.90
2023-05-20T23:12:39.098Z,2.70
2023-05-20T23:15:06.850Z,3.00
2023-05-20T23:17:33.708Z,2.80
2023-05-20T23:22:34.875Z,3.00
2023-05-20T23:25:03.264Z,3.40
2023-05-20T23:27:30.520Z,3.00
2023-05-20T23:29:58.377Z,2.70
2023-05-20T23:32:25.882Z,3.40
2023-05-20T23:34:53.583Z,3.00
2023-05-20T23:37:20.529Z,2.90
2023-05-20T23:39:47.665Z,3.00
2023-05-20T23:42:14.462Z,2.70
2023-05-20T23:44:41.438Z,3.20
2023-05-20T23:47:08.211Z,3.00
2023-05-20T23:49:35.037Z,3.00
2023-05-20T23:52:01.805Z,3.10
2023-05-20T23:54:28.561Z,3.00
2023-05-20T23:56:55.693Z,3.00
2023-05-20T23:59:22.790Z,3.10
